Westgate, Iowa
Current Conditions -  °F | °C
As of 7:35 AM on Thursday 30 Oct 2014 (Local Time) from KOLZ Reporting Station
Overcast Overcast  
Wind Chill: 31°   Ceiling: 5500
Heat Index: 37°   Visibility: 10mi
Dew Point: 36°   Wind: 8mph
Humidity: 93%   Direction: 140°SE
Pressure: 30.07"   Gusts: NA
Location:  42.77°N, 92°W
Report Text: KOLZ 301235Z AUTO 14007KT 10SM OVC055 03/02 A3007 RMK AO2
Loading
Personal Weather Stations






























Interactive Weather Map
Tropical Storm Tracking
New forecast layout! Learn more

10-Day Weather Forecast

Advertisements
Track Severe Weather on mobile